sensor_id;sensor_type;location;lat;lon;timestamp;temperature;humidity
11991;DHT22;6055;52.522;13.446;2022-10-16T00:01:32;14.90;99.90
11991;DHT22;6055;52.522;13.446;2022-10-16T00:03:59;15.00;99.90
11991;DHT22;6055;52.522;13.446;2022-10-16T00:06:25;15.00;99.90
11991;DHT22;6055;52.522;13.446;2022-10-16T00:08:51;14.90;99.90
11991;DHT22;6055;52.522;13.446;2022-10-16T00:11:20;15.00;99.90
11991;DHT22;6055;52.522;13.446;2022-10-16T00:13:49;15.00;99.90
11991;DHT22;6055;52.522;13.446;2022-10-16T00:16:15;15.00;99.90
11991;DHT22;6055;52.522;13.446;2022-10-16T00:18:41;15.10;99.90
11991;DHT22;6055;52.522;13.446;2022-10-16T00:21:09;15.10;99.90
11991;DHT22;6055;52.522;13.446;2022-10-16T00:23:36;15.10;99.90
11991;DHT22;6055;52.522;13.446;2022-10-16T00:26:04;15.10;99.90
11991;DHT22;6055;52.522;13.446;2022-10-16T00:28:31;15.10;99.90
11991;DHT22;6055;52.522;13.446;2022-10-16T00:30:57;15.20;99.90
11991;DHT22;6055;52.522;13.446;2022-10-16T00:33:23;15.20;99.90
11991;DHT22;6055;52.522;13.446;2022-10-16T00:35:48;15.20;99.90
11991;DHT22;6055;52.522;13.446;2022-10-16T00:38:14;15.10;99.90
11991;DHT22;6055;52.522;13.446;2022-10-16T00:40:40;15.20;99.90
11991;DHT22;6055;52.522;13.446;2022-10-16T00:43:14;15.10;99.90
11991;DHT22;6055;52.522;13.446;2022-10-16T00:45:40;15.20;99.90
11991;DHT22;6055;52.522;13.446;2022-10-16T00:48:11;15.20;99.90
11991;DHT22;6055;52.522;13.446;2022-10-16T00:50:37;15.20;99.90
11991;DHT22;6055;52.522;13.446;2022-10-16T00:53:04;15.20;99.90
11991;DHT22;6055;52.522;13.446;2022-10-16T00:55:30;15.20;99.90
11991;DHT22;6055;52.522;13.446;2022-10-16T00:57:56;15.20;99.90
11991;DHT22;6055;52.522;13.446;2022-10-16T01:00:24;15.20;99.90
11991;DHT22;6055;52.522;13.446;2022-10-16T01:02:56;15.20;99.90
11991;DHT22;6055;52.522;13.446;2022-10-16T01:05:44;15.20;99.90
11991;DHT22;6055;52.522;13.446;2022-10-16T01:08:23;15.20;99.90
11991;DHT22;6055;52.522;13.446;2022-10-16T01:10:57;15.20;99.90
11991;DHT22;6055;52.522;13.446;2022-10-16T01:13:34;15.20;99.90
11991;DHT22;6055;52.522;13.446;2022-10-16T01:19:41;15.30;99.90
11991;DHT22;6055;52.522;13.446;2022-10-16T01:21:36;15.30;99.90
11991;DHT22;6055;52.522;13.446;2022-10-16T01:24:33;15.20;99.90
11991;DHT22;6055;52.522;13.446;2022-10-16T01:27:09;15.20;99.90
11991;DHT22;6055;52.522;13.446;2022-10-16T01:32:53;15.20;99.90
11991;DHT22;6055;52.522;13.446;2022-10-16T01:35:25;15.20;99.90
11991;DHT22;6055;52.522;13.446;2022-10-16T01:40:29;15.20;99.90
11991;DHT22;6055;52.522;13.446;2022-10-16T01:43:04;15.30;99.90
11991;DHT22;6055;52.522;13.446;2022-10-16T01:45:31;15.30;99.90
11991;DHT22;6055;52.522;13.446;2022-10-16T01:47:59;15.40;99.90
11991;DHT22;6055;52.522;13.446;2022-10-16T01:50:26;15.30;99.90
11991;DHT22;6055;52.522;13.446;2022-10-16T01:52:52;15.30;99.90
11991;DHT22;6055;52.522;13.446;2022-10-16T01:55:27;15.30;99.90
11991;DHT22;6055;52.522;13.446;2022-10-16T01:57:55;15.30;99.90
11991;DHT22;6055;52.522;13.446;2022-10-16T02:00:22;15.30;99.90
11991;DHT22;6055;52.522;13.446;2022-10-16T02:02:50;15.30;99.90
11991;DHT22;6055;52.522;13.446;2022-10-16T02:05:28;15.30;99.90
11991;DHT22;6055;52.522;13.446;2022-10-16T02:07:54;15.30;99.90
11991;DHT22;6055;52.522;13.446;2022-10-16T02:10:20;15.30;99.90
11991;DHT22;6055;52.522;13.446;2022-10-16T02:12:50;15.40;99.90
11991;DHT22;6055;52.522;13.446;2022-10-16T02:15:19;15.30;99.90
11991;DHT22;6055;52.522;13.446;2022-10-16T02:17:44;15.30;99.90
11991;DHT22;6055;52.522;13.446;2022-10-16T02:20:10;15.40;99.90
11991;DHT22;6055;52.522;13.446;2022-10-16T02:22:39;15.30;99.90
11991;DHT22;6055;52.522;13.446;2022-10-16T02:25:19;15.40;99.90
11991;DHT22;6055;52.522;13.446;2022-10-16T02:30:41;15.40;99.90
11991;DHT22;6055;52.522;13.446;2022-10-16T02:33:10;15.40;99.90
11991;DHT22;6055;52.522;13.446;2022-10-16T02:35:37;15.40;99.90
11991;DHT22;6055;52.522;13.446;2022-10-16T02:38:04;15.40;99.90
11991;DHT22;6055;52.522;13.446;2022-10-16T02:40:30;15.40;99.90
11991;DHT22;6055;52.522;13.446;2022-10-16T02:42:55;15.40;99.90
11991;DHT22;6055;52.522;13.446;2022-10-16T02:45:22;15.40;99.90
11991;DHT22;6055;52.522;13.446;2022-10-16T02:47:47;15.40;99.90
11991;DHT22;6055;52.522;13.446;2022-10-16T02:50:13;15.40;99.90
11991;DHT22;6055;52.522;13.446;2022-10-16T02:52:39;15.40;99.90
11991;DHT22;6055;52.522;13.446;2022-10-16T02:55:05;15.40;99.90
11991;DHT22;6055;52.522;13.446;2022-10-16T02:57:30;15.40;99.90
11991;DHT22;6055;52.522;13.446;2022-10-16T02:59:57;15.40;99.90
11991;DHT22;6055;52.522;13.446;2022-10-16T03:02:22;15.40;99.90
11991;DHT22;6055;52.522;13.446;2022-10-16T03:04:48;15.40;99.90
11991;DHT22;6055;52.522;13.446;2022-10-16T03:07:13;15.40;99.90
11991;DHT22;6055;52.522;13.446;2022-10-16T03:09:39;15.40;99.90
11991;DHT22;6055;52.522;13.446;2022-10-16T03:12:04;15.40;99.90
11991;DHT22;6055;52.522;13.446;2022-10-16T03:14:30;15.40;99.90
11991;DHT22;6055;52.522;13.446;2022-10-16T03:16:55;15.30;99.90
11991;DHT22;6055;52.522;13.446;2022-10-16T03:19:21;15.30;99.90
11991;DHT22;6055;52.522;13.446;2022-10-16T03:21:46;15.30;99.90
11991;DHT22;6055;52.522;13.446;2022-10-16T03:24:12;15.20;99.90
11991;DHT22;6055;52.522;13.446;2022-10-16T03:26:37;15.20;99.90
11991;DHT22;6055;52.522;13.446;2022-10-16T03:29:03;15.20;99.90
11991;DHT22;6055;52.522;13.446;2022-10-16T03:31:29;15.20;99.90
11991;DHT22;6055;52.522;13.446;2022-10-16T03:33:55;15.10;99.90
11991;DHT22;6055;52.522;13.446;2022-10-16T03:36:21;15.10;99.90
11991;DHT22;6055;52.522;13.446;2022-10-16T03:38:46;15.10;99.90
11991;DHT22;6055;52.522;13.446;2022-10-16T03:41:12;15.10;99.90
11991;DHT22;6055;52.522;13.446;2022-10-16T03:43:37;15.10;99.90
11991;DHT22;6055;52.522;13.446;2022-10-16T03:46:03;15.10;99.90
11991;DHT22;6055;52.522;13.446;2022-10-16T03:48:29;15.10;99.90
11991;DHT22;6055;52.522;13.446;2022-10-16T03:50:54;15.00;99.90
11991;DHT22;6055;52.522;13.446;2022-10-16T03:53:20;15.00;99.90
11991;DHT22;6055;52.522;13.446;2022-10-16T03:55:45;15.00;99.90
11991;DHT22;6055;52.522;13.446;2022-10-16T03:58:11;15.00;99.90
11991;DHT22;6055;52.522;13.446;2022-10-16T04:00:40;15.00;99.90
11991;DHT22;6055;52.522;13.446;2022-10-16T04:03:06;15.00;99.90
11991;DHT22;6055;52.522;13.446;2022-10-16T04:05:31;15.00;99.90
11991;DHT22;6055;52.522;13.446;2022-10-16T04:07:57;15.00;99.90
11991;DHT22;6055;52.522;13.446;2022-10-16T04:10:22;15.00;99.90
11991;DHT22;6055;52.522;13.446;2022-10-16T04:12:48;14.90;99.90
11991;DHT22;6055;52.522;13.446;2022-10-16T04:15:13;14.90;99.90
11991;DHT22;6055;52.522;13.446;2022-10-16T04:17:39;14.90;99.90
11991;DHT22;6055;52.522;13.446;2022-10-16T04:20:04;14.90;99.90
11991;DHT22;6055;52.522;13.446;2022-10-16T04:22:30;14.90;99.90
11991;DHT22;6055;52.522;13.446;2022-10-16T04:24:55;14.90;99.90
11991;DHT22;6055;52.522;13.446;2022-10-16T04:27:21;14.90;99.90
11991;DHT22;6055;52.522;13.446;2022-10-16T04:29:46;14.90;99.90
11991;DHT22;6055;52.522;13.446;2022-10-16T04:32:12;14.90;99.90
11991;DHT22;6055;52.522;13.446;2022-10-16T04:34:39;14.80;99.90
11991;DHT22;6055;52.522;13.446;2022-10-16T04:37:04;14.80;99.90
11991;DHT22;6055;52.522;13.446;2022-10-16T04:39:30;14.80;99.90
11991;DHT22;6055;52.522;13.446;2022-10-16T04:41:55;14.80;99.90
11991;DHT22;6055;52.522;13.446;2022-10-16T04:44:21;14.80;99.90
11991;DHT22;6055;52.522;13.446;2022-10-16T04:46:46;14.80;99.90
11991;DHT22;6055;52.522;13.446;2022-10-16T04:49:12;14.70;99.90
11991;DHT22;6055;52.522;13.446;2022-10-16T04:51:37;14.70;99.90
11991;DHT22;6055;52.522;13.446;2022-10-16T04:54:03;14.70;99.90
11991;DHT22;6055;52.522;13.446;2022-10-16T04:56:28;14.70;99.90
11991;DHT22;6055;52.522;13.446;2022-10-16T04:58:54;14.70;99.90
11991;DHT22;6055;52.522;13.446;2022-10-16T05:01:19;14.70;99.90
11991;DHT22;6055;52.522;13.446;2022-10-16T05:03:48;14.60;99.90
11991;DHT22;6055;52.522;13.446;2022-10-16T05:06:13;14.60;99.90
11991;DHT22;6055;52.522;13.446;2022-10-16T05:08:38;14.60;99.90
11991;DHT22;6055;52.522;13.446;2022-10-16T05:11:04;14.50;99.90
11991;DHT22;6055;52.522;13.446;2022-10-16T05:13:29;14.50;99.90
11991;DHT22;6055;52.522;13.446;2022-10-16T05:15:55;14.50;99.90
11991;DHT22;6055;52.522;13.446;2022-10-16T05:18:20;14.50;99.90
11991;DHT22;6055;52.522;13.446;2022-10-16T05:20:46;14.50;99.90
11991;DHT22;6055;52.522;13.446;2022-10-16T05:23:11;14.50;99.90
11991;DHT22;6055;52.522;13.446;2022-10-16T05:25:37;14.40;99.90
11991;DHT22;6055;52.522;13.446;2022-10-16T05:28:02;14.40;99.90
11991;DHT22;6055;52.522;13.446;2022-10-16T05:30:28;14.40;99.90
11991;DHT22;6055;52.522;13.446;2022-10-16T05:32:54;14.40;99.90
11991;DHT22;6055;52.522;13.446;2022-10-16T05:35:20;14.40;99.90
11991;DHT22;6055;52.522;13.446;2022-10-16T05:37:46;14.40;99.90
11991;DHT22;6055;52.522;13.446;2022-10-16T05:40:12;14.50;99.90
11991;DHT22;6055;52.522;13.446;2022-10-16T05:42:38;14.50;99.90
11991;DHT22;6055;52.522;13.446;2022-10-16T05:45:05;14.50;99.90
11991;DHT22;6055;52.522;13.446;2022-10-16T05:47:31;14.50;99.90
11991;DHT22;6055;52.522;13.446;2022-10-16T05:49:56;14.40;99.90
11991;DHT22;6055;52.522;13.446;2022-10-16T05:52:22;14.50;99.90
11991;DHT22;6055;52.522;13.446;2022-10-16T05:54:47;14.50;99.90
11991;DHT22;6055;52.522;13.446;2022-10-16T05:57:13;14.50;99.90
11991;DHT22;6055;52.522;13.446;2022-10-16T05:59:38;14.50;99.90
11991;DHT22;6055;52.522;13.446;2022-10-16T06:02:04;14.50;99.90
11991;DHT22;6055;52.522;13.446;2022-10-16T06:04:29;14.50;99.90
11991;DHT22;6055;52.522;13.446;2022-10-16T06:06:58;14.50;99.90
11991;DHT22;6055;52.522;13.446;2022-10-16T06:09:25;14.50;99.90
11991;DHT22;6055;52.522;13.446;2022-10-16T06:11:51;14.50;99.90
11991;DHT22;6055;52.522;13.446;2022-10-16T06:14:16;14.50;99.90
11991;DHT22;6055;52.522;13.446;2022-10-16T06:16:42;14.60;99.90
11991;DHT22;6055;52.522;13.446;2022-10-16T06:19:07;14.60;99.90
11991;DHT22;6055;52.522;13.446;2022-10-16T06:21:34;14.60;99.90
11991;DHT22;6055;52.522;13.446;2022-10-16T06:24:00;14.70;99.90
11991;DHT22;6055;52.522;13.446;2022-10-16T06:26:28;14.70;99.90
11991;DHT22;6055;52.522;13.446;2022-10-16T06:28:55;14.70;99.90
11991;DHT22;6055;52.522;13.446;2022-10-16T06:31:21;14.70;99.90
11991;DHT22;6055;52.522;13.446;2022-10-16T06:33:50;14.80;99.90
11991;DHT22;6055;52.522;13.446;2022-10-16T06:36:17;14.80;99.90
11991;DHT22;6055;52.522;13.446;2022-10-16T06:38:43;14.90;99.90
11991;DHT22;6055;52.522;13.446;2022-10-16T06:41:14;14.90;99.90
11991;DHT22;6055;52.522;13.446;2022-10-16T06:43:40;14.90;99.90
11991;DHT22;6055;52.522;13.446;2022-10-16T06:46:07;14.90;99.90
11991;DHT22;6055;52.522;13.446;2022-10-16T06:48:36;15.00;99.90
11991;DHT22;6055;52.522;13.446;2022-10-16T06:51:10;15.00;99.90
11991;DHT22;6055;52.522;13.446;2022-10-16T06:53:39;15.00;99.90
11991;DHT22;6055;52.522;13.446;2022-10-16T06:56:13;15.00;99.90
11991;DHT22;6055;52.522;13.446;2022-10-16T06:58:39;15.00;99.90
11991;DHT22;6055;52.522;13.446;2022-10-16T07:01:05;15.00;99.90
11991;DHT22;6055;52.522;13.446;2022-10-16T07:03:30;15.00;99.90
11991;DHT22;6055;52.522;13.446;2022-10-16T07:05:56;15.10;99.90
11991;DHT22;6055;52.522;13.446;2022-10-16T07:08:22;15.20;99.90
11991;DHT22;6055;52.522;13.446;2022-10-16T07:10:48;15.30;99.90
11991;DHT22;6055;52.522;13.446;2022-10-16T07:13:13;15.40;99.90
11991;DHT22;6055;52.522;13.446;2022-10-16T07:15:40;15.50;99.90
11991;DHT22;6055;52.522;13.446;2022-10-16T07:18:05;15.70;99.90
11991;DHT22;6055;52.522;13.446;2022-10-16T07:20:31;15.80;99.90
11991;DHT22;6055;52.522;13.446;2022-10-16T07:22:56;16.00;99.90
11991;DHT22;6055;52.522;13.446;2022-10-16T07:25:22;16.00;99.90
11991;DHT22;6055;52.522;13.446;2022-10-16T07:27:47;16.10;99.90
11991;DHT22;6055;52.522;13.446;2022-10-16T07:30:13;16.10;99.90
11991;DHT22;6055;52.522;13.446;2022-10-16T07:32:38;16.20;99.90
11991;DHT22;6055;52.522;13.446;2022-10-16T07:35:04;16.30;99.90
11991;DHT22;6055;52.522;13.446;2022-10-16T07:37:30;16.30;99.90
11991;DHT22;6055;52.522;13.446;2022-10-16T07:39:55;16.30;99.90
11991;DHT22;6055;52.522;13.446;2022-10-16T07:42:21;16.30;99.90
11991;DHT22;6055;52.522;13.446;2022-10-16T07:44:46;16.30;99.90
11991;DHT22;6055;52.522;13.446;2022-10-16T07:47:12;16.40;99.90
11991;DHT22;6055;52.522;13.446;2022-10-16T07:49:37;16.40;99.90
11991;DHT22;6055;52.522;13.446;2022-10-16T07:52:03;16.30;99.90
11991;DHT22;6055;52.522;13.446;2022-10-16T07:54:28;16.40;99.90
11991;DHT22;6055;52.522;13.446;2022-10-16T07:56:54;16.40;99.90
11991;DHT22;6055;52.522;13.446;2022-10-16T07:59:22;16.40;99.90
11991;DHT22;6055;52.522;13.446;2022-10-16T08:01:49;16.40;99.90
11991;DHT22;6055;52.522;13.446;2022-10-16T08:04:14;16.40;99.90
11991;DHT22;6055;52.522;13.446;2022-10-16T08:06:40;16.40;99.90
11991;DHT22;6055;52.522;13.446;2022-10-16T08:09:07;16.50;99.90
11991;DHT22;6055;52.522;13.446;2022-10-16T08:11:32;16.50;99.90
11991;DHT22;6055;52.522;13.446;2022-10-16T08:13:58;16.50;99.90
11991;DHT22;6055;52.522;13.446;2022-10-16T08:16:23;16.60;99.90
11991;DHT22;6055;52.522;13.446;2022-10-16T08:18:49;16.60;99.90
11991;DHT22;6055;52.522;13.446;2022-10-16T08:21:18;16.70;99.90
11991;DHT22;6055;52.522;13.446;2022-10-16T08:23:44;16.70;99.90
11991;DHT22;6055;52.522;13.446;2022-10-16T08:26:11;16.80;99.90
11991;DHT22;6055;52.522;13.446;2022-10-16T08:28:37;16.80;99.90
11991;DHT22;6055;52.522;13.446;2022-10-16T08:33:32;16.90;99.90
11991;DHT22;6055;52.522;13.446;2022-10-16T08:35:57;16.90;99.90
11991;DHT22;6055;52.522;13.446;2022-10-16T08:38:23;17.00;99.90
11991;DHT22;6055;52.522;13.446;2022-10-16T08:40:48;17.00;99.90
11991;DHT22;6055;52.522;13.446;2022-10-16T08:46:24;17.00;99.90
11991;DHT22;6055;52.522;13.446;2022-10-16T08:48:53;17.00;99.90
11991;DHT22;6055;52.522;13.446;2022-10-16T08:51:23;17.00;99.90
11991;DHT22;6055;52.522;13.446;2022-10-16T08:54:01;17.00;99.90
11991;DHT22;6055;52.522;13.446;2022-10-16T08:56:28;17.00;99.90
11991;DHT22;6055;52.522;13.446;2022-10-16T08:58:54;17.00;99.90
11991;DHT22;6055;52.522;13.446;2022-10-16T09:01:21;17.00;99.90
11991;DHT22;6055;52.522;13.446;2022-10-16T09:04:04;17.00;99.90
11991;DHT22;6055;52.522;13.446;2022-10-16T09:06:40;17.00;99.90
11991;DHT22;6055;52.522;13.446;2022-10-16T09:09:31;17.00;99.90
11991;DHT22;6055;52.522;13.446;2022-10-16T09:17:52;17.30;99.90
11991;DHT22;6055;52.522;13.446;2022-10-16T09:22:47;17.50;99.90
11991;DHT22;6055;52.522;13.446;2022-10-16T09:25:16;17.50;99.90
11991;DHT22;6055;52.522;13.446;2022-10-16T09:27:45;17.60;99.90
11991;DHT22;6055;52.522;13.446;2022-10-16T09:30:17;17.70;99.90
11991;DHT22;6055;52.522;13.446;2022-10-16T09:32:45;17.80;99.90
11991;DHT22;6055;52.522;13.446;2022-10-16T09:35:17;17.90;99.90
11991;DHT22;6055;52.522;13.446;2022-10-16T09:37:45;17.90;99.90
11991;DHT22;6055;52.522;13.446;2022-10-16T09:40:23;17.90;99.90
11991;DHT22;6055;52.522;13.446;2022-10-16T09:42:49;17.80;99.90
11991;DHT22;6055;52.522;13.446;2022-10-16T09:45:23;17.80;99.90
11991;DHT22;6055;52.522;13.446;2022-10-16T09:47:48;17.90;99.90
11991;DHT22;6055;52.522;13.446;2022-10-16T09:50:25;17.90;99.90
11991;DHT22;6055;52.522;13.446;2022-10-16T09:53:02;17.90;99.90
11991;DHT22;6055;52.522;13.446;2022-10-16T09:55:28;17.90;99.90
11991;DHT22;6055;52.522;13.446;2022-10-16T09:57:54;18.00;99.90
11991;DHT22;6055;52.522;13.446;2022-10-16T10:00:21;17.90;99.90
11991;DHT22;6055;52.522;13.446;2022-10-16T10:02:47;17.90;99.90
11991;DHT22;6055;52.522;13.446;2022-10-16T10:05:25;17.90;99.90
11991;DHT22;6055;52.522;13.446;2022-10-16T10:10:41;17.90;99.90
11991;DHT22;6055;52.522;13.446;2022-10-16T10:13:21;18.10;99.90
11991;DHT22;6055;52.522;13.446;2022-10-16T10:15:47;18.20;99.90
11991;DHT22;6055;52.522;13.446;2022-10-16T10:18:18;18.30;99.90
11991;DHT22;6055;52.522;13.446;2022-10-16T10:20:45;18.40;99.90
11991;DHT22;6055;52.522;13.446;2022-10-16T10:23:21;18.40;99.90
11991;DHT22;6055;52.522;13.446;2022-10-16T10:36:27;18.50;99.90
11991;DHT22;6055;52.522;13.446;2022-10-16T10:42:11;18.60;99.90
11991;DHT22;6055;52.522;13.446;2022-10-16T10:45:11;18.60;99.90
11991;DHT22;6055;52.522;13.446;2022-10-16T10:48:22;18.70;99.90
11991;DHT22;6055;52.522;13.446;2022-10-16T10:56:58;19.10;99.90
11991;DHT22;6055;52.522;13.446;2022-10-16T10:59:52;19.10;99.90
11991;DHT22;6055;52.522;13.446;2022-10-16T11:02:37;19.00;99.90
11991;DHT22;6055;52.522;13.446;2022-10-16T11:05:23;19.10;99.90
11991;DHT22;6055;52.522;13.446;2022-10-16T11:08:00;19.40;99.90
11991;DHT22;6055;52.522;13.446;2022-10-16T11:10:30;19.60;99.90
11991;DHT22;6055;52.522;13.446;2022-10-16T11:13:09;19.80;99.90
11991;DHT22;6055;52.522;13.446;2022-10-16T11:15:37;20.20;99.90
11991;DHT22;6055;52.522;13.446;2022-10-16T11:20:37;20.60;99.90
11991;DHT22;6055;52.522;13.446;2022-10-16T11:23:16;20.30;99.90
11991;DHT22;6055;52.522;13.446;2022-10-16T11:25:43;20.00;99.90
11991;DHT22;6055;52.522;13.446;2022-10-16T11:28:29;20.00;99.90
11991;DHT22;6055;52.522;13.446;2022-10-16T11:33:56;19.90;99.90
11991;DHT22;6055;52.522;13.446;2022-10-16T11:36:40;19.90;99.90
11991;DHT22;6055;52.522;13.446;2022-10-16T11:39:21;20.00;99.90
11991;DHT22;6055;52.522;13.446;2022-10-16T11:42:27;20.40;99.90
11991;DHT22;6055;52.522;13.446;2022-10-16T11:45:26;20.70;99.90
11991;DHT22;6055;52.522;13.446;2022-10-16T11:50:48;20.70;99.90
11991;DHT22;6055;52.522;13.446;2022-10-16T11:56:05;20.70;99.90
11991;DHT22;6055;52.522;13.446;2022-10-16T12:04:22;20.30;99.90
11991;DHT22;6055;52.522;13.446;2022-10-16T12:07:09;20.20;99.90
11991;DHT22;6055;52.522;13.446;2022-10-16T12:09:39;20.10;99.90
11991;DHT22;6055;52.522;13.446;2022-10-16T12:12:22;19.80;99.90
11991;DHT22;6055;52.522;13.446;2022-10-16T12:15:00;19.70;99.90
11991;DHT22;6055;52.522;13.446;2022-10-16T12:17:37;19.80;99.90
11991;DHT22;6055;52.522;13.446;2022-10-16T12:20:25;20.00;99.90
11991;DHT22;6055;52.522;13.446;2022-10-16T12:22:56;20.20;99.90
11991;DHT22;6055;52.522;13.446;2022-10-16T12:28:06;22.00;99.90
11991;DHT22;6055;52.522;13.446;2022-10-16T12:30:35;22.60;99.90
11991;DHT22;6055;52.522;13.446;2022-10-16T12:33:15;23.60;96.40
11991;DHT22;6055;52.522;13.446;2022-10-16T12:35:45;24.00;95.00
11991;DHT22;6055;52.522;13.446;2022-10-16T12:40:42;24.30;91.90
11991;DHT22;6055;52.522;13.446;2022-10-16T12:45:38;24.50;90.10
11991;DHT22;6055;52.522;13.446;2022-10-16T12:48:19;24.70;87.30
11991;DHT22;6055;52.522;13.446;2022-10-16T12:50:45;24.50;88.60
11991;DHT22;6055;52.522;13.446;2022-10-16T12:53:28;24.20;90.00
11991;DHT22;6055;52.522;13.446;2022-10-16T12:56:22;24.40;89.60
11991;DHT22;6055;52.522;13.446;2022-10-16T12:59:11;24.40;88.50
11991;DHT22;6055;52.522;13.446;2022-10-16T13:04:52;24.00;90.10
11991;DHT22;6055;52.522;13.446;2022-10-16T13:07:50;23.70;90.30
11991;DHT22;6055;52.522;13.446;2022-10-16T13:13:50;23.30;91.70
11991;DHT22;6055;52.522;13.446;2022-10-16T13:16:52;23.50;91.70
11991;DHT22;6055;52.522;13.446;2022-10-16T13:19:35;23.70;90.10
11991;DHT22;6055;52.522;13.446;2022-10-16T13:24:53;23.80;87.20
11991;DHT22;6055;52.522;13.446;2022-10-16T13:27:56;23.70;89.30
11991;DHT22;6055;52.522;13.446;2022-10-16T13:30:25;23.30;90.60
11991;DHT22;6055;52.522;13.446;2022-10-16T13:33:19;22.90;92.10
11991;DHT22;6055;52.522;13.446;2022-10-16T13:35:54;22.80;92.90
11991;DHT22;6055;52.522;13.446;2022-10-16T13:38:25;23.20;92.50
11991;DHT22;6055;52.522;13.446;2022-10-16T13:41:04;23.50;91.20
11991;DHT22;6055;52.522;13.446;2022-10-16T13:43:51;23.60;91.00
11991;DHT22;6055;52.522;13.446;2022-10-16T13:46:20;23.70;89.30
11991;DHT22;6055;52.522;13.446;2022-10-16T13:49:20;24.00;88.90
11991;DHT22;6055;52.522;13.446;2022-10-16T13:51:55;24.10;86.60
11991;DHT22;6055;52.522;13.446;2022-10-16T13:54:22;24.20;85.50
11991;DHT22;6055;52.522;13.446;2022-10-16T13:56:48;24.20;86.20
11991;DHT22;6055;52.522;13.446;2022-10-16T13:59:27;24.80;84.80
11991;DHT22;6055;52.522;13.446;2022-10-16T14:01:58;25.20;81.90
11991;DHT22;6055;52.522;13.446;2022-10-16T14:04:27;25.30;80.70
11991;DHT22;6055;52.522;13.446;2022-10-16T14:06:55;25.20;82.10
11991;DHT22;6055;52.522;13.446;2022-10-16T14:11:49;24.00;85.70
11991;DHT22;6055;52.522;13.446;2022-10-16T14:14:17;24.10;87.50
11991;DHT22;6055;52.522;13.446;2022-10-16T14:16:43;24.20;86.00
11991;DHT22;6055;52.522;13.446;2022-10-16T14:19:35;24.20;86.20
11991;DHT22;6055;52.522;13.446;2022-10-16T14:22:01;23.70;89.10
11991;DHT22;6055;52.522;13.446;2022-10-16T14:26:56;23.30;91.20
11991;DHT22;6055;52.522;13.446;2022-10-16T14:29:23;23.50;90.90
11991;DHT22;6055;52.522;13.446;2022-10-16T14:32:00;23.80;90.70
11991;DHT22;6055;52.522;13.446;2022-10-16T14:34:35;23.50;90.90
11991;DHT22;6055;52.522;13.446;2022-10-16T14:37:14;23.10;92.60
11991;DHT22;6055;52.522;13.446;2022-10-16T14:39:49;23.10;92.80
11991;DHT22;6055;52.522;13.446;2022-10-16T14:42:17;22.80;93.50
11991;DHT22;6055;52.522;13.446;2022-10-16T14:44:44;22.50;95.30
11991;DHT22;6055;52.522;13.446;2022-10-16T14:47:13;22.30;96.60
11991;DHT22;6055;52.522;13.446;2022-10-16T14:49:41;22.10;98.20
11991;DHT22;6055;52.522;13.446;2022-10-16T14:52:11;21.90;98.20
11991;DHT22;6055;52.522;13.446;2022-10-16T14:54:37;21.70;99.00
11991;DHT22;6055;52.522;13.446;2022-10-16T14:57:02;21.60;99.60
11991;DHT22;6055;52.522;13.446;2022-10-16T14:59:40;21.40;99.90
11991;DHT22;6055;52.522;13.446;2022-10-16T15:02:25;21.20;99.90
11991;DHT22;6055;52.522;13.446;2022-10-16T15:04:52;21.00;99.90
11991;DHT22;6055;52.522;13.446;2022-10-16T15:07:17;21.00;99.90
11991;DHT22;6055;52.522;13.446;2022-10-16T15:09:43;20.90;99.90
11991;DHT22;6055;52.522;13.446;2022-10-16T15:12:08;20.90;99.90
11991;DHT22;6055;52.522;13.446;2022-10-16T15:14:34;20.80;99.90
11991;DHT22;6055;52.522;13.446;2022-10-16T15:16:59;20.70;99.90
11991;DHT22;6055;52.522;13.446;2022-10-16T15:19:25;20.70;99.90
11991;DHT22;6055;52.522;13.446;2022-10-16T15:21:50;20.80;99.90
11991;DHT22;6055;52.522;13.446;2022-10-16T15:24:18;20.70;99.90
11991;DHT22;6055;52.522;13.446;2022-10-16T15:26:43;20.70;99.90
11991;DHT22;6055;52.522;13.446;2022-10-16T15:29:11;20.50;99.90
11991;DHT22;6055;52.522;13.446;2022-10-16T15:31:37;20.30;99.90
11991;DHT22;6055;52.522;13.446;2022-10-16T15:34:03;20.00;99.90
11991;DHT22;6055;52.522;13.446;2022-10-16T15:36:33;19.80;99.90
11991;DHT22;6055;52.522;13.446;2022-10-16T15:39:01;19.60;99.90
11991;DHT22;6055;52.522;13.446;2022-10-16T15:41:27;19.60;99.90
11991;DHT22;6055;52.522;13.446;2022-10-16T15:43:52;19.60;99.90
11991;DHT22;6055;52.522;13.446;2022-10-16T15:46:20;19.60;99.90
11991;DHT22;6055;52.522;13.446;2022-10-16T15:48:47;19.60;99.90
11991;DHT22;6055;52.522;13.446;2022-10-16T15:51:12;19.70;99.90
11991;DHT22;6055;52.522;13.446;2022-10-16T15:53:38;19.60;99.90
11991;DHT22;6055;52.522;13.446;2022-10-16T15:56:04;19.50;99.90
11991;DHT22;6055;52.522;13.446;2022-10-16T15:58:30;19.40;99.90
11991;DHT22;6055;52.522;13.446;2022-10-16T16:00:57;19.20;99.90
11991;DHT22;6055;52.522;13.446;2022-10-16T16:03:23;19.10;99.90
11991;DHT22;6055;52.522;13.446;2022-10-16T16:05:48;19.00;99.90
11991;DHT22;6055;52.522;13.446;2022-10-16T16:08:14;18.80;99.90
11991;DHT22;6055;52.522;13.446;2022-10-16T16:10:39;18.70;99.90
11991;DHT22;6055;52.522;13.446;2022-10-16T16:13:05;18.60;99.90
11991;DHT22;6055;52.522;13.446;2022-10-16T16:15:30;18.50;99.90
11991;DHT22;6055;52.522;13.446;2022-10-16T16:17:56;18.40;99.90
11991;DHT22;6055;52.522;13.446;2022-10-16T16:20:22;18.30;99.90
11991;DHT22;6055;52.522;13.446;2022-10-16T16:22:48;18.20;99.90
11991;DHT22;6055;52.522;13.446;2022-10-16T16:25:13;18.20;99.90
11991;DHT22;6055;52.522;13.446;2022-10-16T16:27:41;18.10;99.90
11991;DHT22;6055;52.522;13.446;2022-10-16T16:30:09;18.00;99.90
11991;DHT22;6055;52.522;13.446;2022-10-16T16:32:35;17.90;99.90
11991;DHT22;6055;52.522;13.446;2022-10-16T16:35:01;17.80;99.90
11991;DHT22;6055;52.522;13.446;2022-10-16T16:37:27;17.80;99.90
11991;DHT22;6055;52.522;13.446;2022-10-16T16:39:53;17.70;99.90
11991;DHT22;6055;52.522;13.446;2022-10-16T16:42:20;17.70;99.90
11991;DHT22;6055;52.522;13.446;2022-10-16T16:44:47;17.60;99.90
11991;DHT22;6055;52.522;13.446;2022-10-16T16:47:13;17.60;99.90
11991;DHT22;6055;52.522;13.446;2022-10-16T16:49:38;17.60;99.90
11991;DHT22;6055;52.522;13.446;2022-10-16T16:52:05;17.60;99.90
11991;DHT22;6055;52.522;13.446;2022-10-16T16:54:31;17.60;99.90
11991;DHT22;6055;52.522;13.446;2022-10-16T16:56:56;17.60;99.90
11991;DHT22;6055;52.522;13.446;2022-10-16T16:59:22;17.60;99.90
11991;DHT22;6055;52.522;13.446;2022-10-16T17:01:48;17.50;99.90
11991;DHT22;6055;52.522;13.446;2022-10-16T17:04:14;17.50;99.90
11991;DHT22;6055;52.522;13.446;2022-10-16T17:06:44;17.50;99.90
11991;DHT22;6055;52.522;13.446;2022-10-16T17:09:10;17.50;99.90
11991;DHT22;6055;52.522;13.446;2022-10-16T17:11:38;17.40;99.90